sensor_id;sensor_type;location;lat;lon;timestamp;P1;durP1;ratioP1;P2;durP2;ratioP2
56269;SDS011;42176;43.240;27.880;2023-08-07T00:01:20;6.37;;;3.10;;
56269;SDS011;42176;43.240;27.880;2023-08-07T00:03:21;3.47;;;2.75;;
56269;SDS011;42176;43.240;27.880;2023-08-07T00:05:21;3.00;;;2.70;;
56269;SDS011;42176;43.240;27.880;2023-08-07T00:07:22;3.00;;;2.70;;
56269;SDS011;42176;43.240;27.880;2023-08-07T00:09:24;3.42;;;2.35;;
56269;SDS011;42176;43.240;27.880;2023-08-07T00:11:25;3.50;;;2.90;;
56269;SDS011;42176;43.240;27.880;2023-08-07T00:13:27;3.25;;;2.55;;
56269;SDS011;42176;43.240;27.880;2023-08-07T00:15:28;5.03;;;2.70;;
56269;SDS011;42176;43.240;27.880;2023-08-07T00:17:28;4.73;;;2.90;;
56269;SDS011;42176;43.240;27.880;2023-08-07T00:19:29;3.70;;;2.97;;
56269;SDS011;42176;43.240;27.880;2023-08-07T00:21:29;3.90;;;3.17;;
56269;SDS011;42176;43.240;27.880;2023-08-07T00:23:30;5.80;;;3.53;;
56269;SDS011;42176;43.240;27.880;2023-08-07T00:25:30;3.47;;;3.17;;
56269;SDS011;42176;43.240;27.880;2023-08-07T00:27:31;5.75;;;3.63;;
56269;SDS011;42176;43.240;27.880;2023-08-07T00:29:31;6.47;;;3.77;;
56269;SDS011;42176;43.240;27.880;2023-08-07T00:31:32;4.72;;;4.15;;
56269;SDS011;42176;43.240;27.880;2023-08-07T00:33:33;5.27;;;4.10;;
56269;SDS011;42176;43.240;27.880;2023-08-07T00:35:33;4.70;;;3.73;;
56269;SDS011;42176;43.240;27.880;2023-08-07T00:37:34;4.60;;;4.03;;
56269;SDS011;42176;43.240;27.880;2023-08-07T00:39:34;4.88;;;4.20;;
56269;SDS011;42176;43.240;27.880;2023-08-07T00:41:35;4.93;;;4.30;;
56269;SDS011;42176;43.240;27.880;2023-08-07T00:43:35;6.20;;;3.87;;
56269;SDS011;42176;43.240;27.880;2023-08-07T00:45:43;4.50;;;3.80;;
56269;SDS011;42176;43.240;27.880;2023-08-07T00:47:45;4.82;;;4.22;;
56269;SDS011;42176;43.240;27.880;2023-08-07T00:49:45;5.60;;;4.13;;
56269;SDS011;42176;43.240;27.880;2023-08-07T00:51:47;6.10;;;4.43;;
56269;SDS011;42176;43.240;27.880;2023-08-07T00:53:49;6.50;;;4.50;;
56269;SDS011;42176;43.240;27.880;2023-08-07T00:55:50;6.82;;;4.60;;
56269;SDS011;42176;43.240;27.880;2023-08-07T00:57:51;5.13;;;4.30;;
56269;SDS011;42176;43.240;27.880;2023-08-07T00:59:52;5.47;;;4.30;;
56269;SDS011;42176;43.240;27.880;2023-08-07T01:01:52;5.97;;;4.18;;
56269;SDS011;42176;43.240;27.880;2023-08-07T01:03:53;5.03;;;3.87;;
56269;SDS011;42176;43.240;27.880;2023-08-07T01:05:53;6.38;;;4.80;;
56269;SDS011;42176;43.240;27.880;2023-08-07T01:07:54;6.53;;;5.07;;
56269;SDS011;42176;43.240;27.880;2023-08-07T01:09:55;8.73;;;5.28;;
56269;SDS011;42176;43.240;27.880;2023-08-07T01:12:02;5.55;;;4.90;;
56269;SDS011;42176;43.240;27.880;2023-08-07T01:16:20;7.30;;;4.28;;
56269;SDS011;42176;43.240;27.880;2023-08-07T01:18:29;6.55;;;5.00;;
56269;SDS011;42176;43.240;27.880;2023-08-07T01:20:31;6.13;;;4.82;;
56269;SDS011;42176;43.240;27.880;2023-08-07T01:22:31;9.93;;;5.80;;
56269;SDS011;42176;43.240;27.880;2023-08-07T01:24:32;6.93;;;5.80;;
56269;SDS011;42176;43.240;27.880;2023-08-07T01:26:32;8.85;;;6.72;;
56269;SDS011;42176;43.240;27.880;2023-08-07T01:28:39;10.23;;;5.93;;
56269;SDS011;42176;43.240;27.880;2023-08-07T01:30:48;6.38;;;5.63;;
56269;SDS011;42176;43.240;27.880;2023-08-07T01:35:29;7.63;;;5.88;;
56269;SDS011;42176;43.240;27.880;2023-08-07T01:37:33;8.15;;;6.03;;
56269;SDS011;42176;43.240;27.880;2023-08-07T01:39:36;7.93;;;6.25;;
56269;SDS011;42176;43.240;27.880;2023-08-07T01:41:38;8.52;;;6.15;;
56269;SDS011;42176;43.240;27.880;2023-08-07T01:43:39;9.23;;;6.30;;
56269;SDS011;42176;43.240;27.880;2023-08-07T01:45:39;6.80;;;5.93;;
56269;SDS011;42176;43.240;27.880;2023-08-07T01:47:40;9.87;;;5.60;;
56269;SDS011;42176;43.240;27.880;2023-08-07T01:49:40;8.37;;;6.63;;
56269;SDS011;42176;43.240;27.880;2023-08-07T01:51:40;7.30;;;5.43;;
56269;SDS011;42176;43.240;27.880;2023-08-07T01:53:41;8.07;;;6.10;;
56269;SDS011;42176;43.240;27.880;2023-08-07T01:55:41;8.70;;;5.77;;
56269;SDS011;42176;43.240;27.880;2023-08-07T01:57:42;7.00;;;5.80;;
56269;SDS011;42176;43.240;27.880;2023-08-07T01:59:42;9.00;;;5.50;;
56269;SDS011;42176;43.240;27.880;2023-08-07T02:01:44;8.27;;;5.93;;
56269;SDS011;42176;43.240;27.880;2023-08-07T02:03:45;6.97;;;5.50;;
56269;SDS011;42176;43.240;27.880;2023-08-07T02:05:45;8.40;;;5.23;;
56269;SDS011;42176;43.240;27.880;2023-08-07T02:07:46;8.48;;;5.93;;
56269;SDS011;42176;43.240;27.880;2023-08-07T02:09:46;9.10;;;5.33;;
56269;SDS011;42176;43.240;27.880;2023-08-07T02:11:47;8.97;;;6.80;;
56269;SDS011;42176;43.240;27.880;2023-08-07T02:13:48;11.20;;;5.70;;
56269;SDS011;42176;43.240;27.880;2023-08-07T02:15:48;7.27;;;5.60;;
56269;SDS011;42176;43.240;27.880;2023-08-07T02:17:48;7.23;;;5.23;;
56269;SDS011;42176;43.240;27.880;2023-08-07T02:19:49;6.37;;;4.97;;
56269;SDS011;42176;43.240;27.880;2023-08-07T02:21:49;8.23;;;5.23;;
56269;SDS011;42176;43.240;27.880;2023-08-07T02:23:50;8.60;;;5.37;;
56269;SDS011;42176;43.240;27.880;2023-08-07T02:25:51;6.27;;;5.13;;
56269;SDS011;42176;43.240;27.880;2023-08-07T02:27:51;6.75;;;5.80;;
56269;SDS011;42176;43.240;27.880;2023-08-07T02:29:52;7.97;;;4.87;;
56269;SDS011;42176;43.240;27.880;2023-08-07T02:31:53;6.38;;;4.82;;
56269;SDS011;42176;43.240;27.880;2023-08-07T02:33:53;7.87;;;5.10;;
56269;SDS011;42176;43.240;27.880;2023-08-07T02:35:53;7.20;;;4.33;;
56269;SDS011;42176;43.240;27.880;2023-08-07T02:37:54;5.80;;;4.63;;
56269;SDS011;42176;43.240;27.880;2023-08-07T02:39:54;7.40;;;5.17;;
56269;SDS011;42176;43.240;27.880;2023-08-07T02:41:55;14.73;;;5.50;;
56269;SDS011;42176;43.240;27.880;2023-08-07T02:43:55;5.57;;;4.20;;
56269;SDS011;42176;43.240;27.880;2023-08-07T02:45:56;5.70;;;4.60;;
56269;SDS011;42176;43.240;27.880;2023-08-07T02:47:56;6.57;;;5.00;;
56269;SDS011;42176;43.240;27.880;2023-08-07T02:49:57;6.85;;;5.10;;
56269;SDS011;42176;43.240;27.880;2023-08-07T02:51:57;6.23;;;4.93;;
56269;SDS011;42176;43.240;27.880;2023-08-07T02:53:58;8.35;;;5.25;;
56269;SDS011;42176;43.240;27.880;2023-08-07T02:55:58;7.70;;;4.90;;
56269;SDS011;42176;43.240;27.880;2023-08-07T02:57:59;5.77;;;3.90;;
56269;SDS011;42176;43.240;27.880;2023-08-07T03:00:00;6.22;;;4.78;;
56269;SDS011;42176;43.240;27.880;2023-08-07T03:02:00;4.83;;;3.87;;
56269;SDS011;42176;43.240;27.880;2023-08-07T03:04:00;7.53;;;4.40;;
56269;SDS011;42176;43.240;27.880;2023-08-07T03:06:01;6.67;;;5.50;;
56269;SDS011;42176;43.240;27.880;2023-08-07T03:08:01;8.10;;;5.10;;
56269;SDS011;42176;43.240;27.880;2023-08-07T03:10:02;6.30;;;4.80;;
56269;SDS011;42176;43.240;27.880;2023-08-07T03:12:04;7.40;;;5.43;;
56269;SDS011;42176;43.240;27.880;2023-08-07T03:14:05;7.25;;;4.60;;
56269;SDS011;42176;43.240;27.880;2023-08-07T03:16:05;7.97;;;4.77;;
56269;SDS011;42176;43.240;27.880;2023-08-07T03:18:07;6.55;;;4.35;;
56269;SDS011;42176;43.240;27.880;2023-08-07T03:20:08;10.27;;;4.90;;
56269;SDS011;42176;43.240;27.880;2023-08-07T03:22:09;5.60;;;4.40;;
56269;SDS011;42176;43.240;27.880;2023-08-07T03:24:10;5.67;;;4.23;;
56269;SDS011;42176;43.240;27.880;2023-08-07T03:26:11;8.43;;;4.60;;
56269;SDS011;42176;43.240;27.880;2023-08-07T03:28:12;4.95;;;4.15;;
56269;SDS011;42176;43.240;27.880;2023-08-07T03:30:12;4.53;;;3.73;;
56269;SDS011;42176;43.240;27.880;2023-08-07T03:32:13;4.03;;;3.50;;
56269;SDS011;42176;43.240;27.880;2023-08-07T03:34:13;4.10;;;3.77;;
56269;SDS011;42176;43.240;27.880;2023-08-07T03:36:14;7.00;;;4.13;;
56269;SDS011;42176;43.240;27.880;2023-08-07T03:38:14;7.70;;;4.07;;
56269;SDS011;42176;43.240;27.880;2023-08-07T03:40:15;5.70;;;3.60;;
56269;SDS011;42176;43.240;27.880;2023-08-07T03:42:15;4.17;;;2.80;;
56269;SDS011;42176;43.240;27.880;2023-08-07T03:44:15;6.73;;;4.40;;
56269;SDS011;42176;43.240;27.880;2023-08-07T03:46:16;4.73;;;3.53;;
56269;SDS011;42176;43.240;27.880;2023-08-07T03:48:17;5.07;;;4.00;;
56269;SDS011;42176;43.240;27.880;2023-08-07T03:50:17;9.97;;;5.03;;
56269;SDS011;42176;43.240;27.880;2023-08-07T03:52:17;7.27;;;3.77;;
56269;SDS011;42176;43.240;27.880;2023-08-07T03:54:18;3.75;;;3.33;;
56269;SDS011;42176;43.240;27.880;2023-08-07T03:56:18;3.70;;;2.97;;
56269;SDS011;42176;43.240;27.880;2023-08-07T03:58:19;4.23;;;3.40;;
56269;SDS011;42176;43.240;27.880;2023-08-07T04:00:19;5.10;;;3.30;;
56269;SDS011;42176;43.240;27.880;2023-08-07T04:02:20;3.50;;;3.20;;
56269;SDS011;42176;43.240;27.880;2023-08-07T04:04:21;3.47;;;3.10;;
56269;SDS011;42176;43.240;27.880;2023-08-07T04:06:21;6.53;;;2.80;;
56269;SDS011;42176;43.240;27.880;2023-08-07T04:08:22;3.93;;;2.57;;
56269;SDS011;42176;43.240;27.880;2023-08-07T04:10:22;4.13;;;3.58;;
56269;SDS011;42176;43.240;27.880;2023-08-07T04:12:23;3.13;;;2.90;;
56269;SDS011;42176;43.240;27.880;2023-08-07T04:14:23;3.30;;;2.87;;
56269;SDS011;42176;43.240;27.880;2023-08-07T04:16:24;9.45;;;2.90;;
56269;SDS011;42176;43.240;27.880;2023-08-07T04:18:24;4.57;;;2.30;;
56269;SDS011;42176;43.240;27.880;2023-08-07T04:20:25;2.85;;;2.58;;
56269;SDS011;42176;43.240;27.880;2023-08-07T04:22:25;3.83;;;2.43;;
56269;SDS011;42176;43.240;27.880;2023-08-07T04:24:26;6.47;;;2.53;;
56269;SDS011;42176;43.240;27.880;2023-08-07T04:26:26;3.80;;;2.13;;
56269;SDS011;42176;43.240;27.880;2023-08-07T04:28:30;3.83;;;3.03;;
56269;SDS011;42176;43.240;27.880;2023-08-07T04:30:30;3.00;;;2.63;;
56269;SDS011;42176;43.240;27.880;2023-08-07T04:32:30;2.20;;;2.10;;
56269;SDS011;42176;43.240;27.880;2023-08-07T04:34:31;9.60;;;3.00;;
56269;SDS011;42176;43.240;27.880;2023-08-07T04:36:31;3.08;;;2.50;;
56269;SDS011;42176;43.240;27.880;2023-08-07T04:38:33;2.72;;;2.25;;
56269;SDS011;42176;43.240;27.880;2023-08-07T04:40:33;2.58;;;2.38;;
56269;SDS011;42176;43.240;27.880;2023-08-07T04:44:34;3.90;;;2.30;;
56269;SDS011;42176;43.240;27.880;2023-08-07T04:48:35;2.63;;;2.40;;
56269;SDS011;42176;43.240;27.880;2023-08-07T04:50:36;6.00;;;2.50;;
56269;SDS011;42176;43.240;27.880;2023-08-07T04:54:37;2.20;;;2.10;;
56269;SDS011;42176;43.240;27.880;2023-08-07T04:58:38;2.97;;;1.77;;
56269;SDS011;42176;43.240;27.880;2023-08-07T05:02:39;8.63;;;2.90;;
56269;SDS011;42176;43.240;27.880;2023-08-07T05:06:39;1.90;;;1.73;;
56269;SDS011;42176;43.240;27.880;2023-08-07T05:10:40;2.43;;;2.20;;
56269;SDS011;42176;43.240;27.880;2023-08-07T05:12:41;2.15;;;1.98;;
56269;SDS011;42176;43.240;27.880;2023-08-07T05:14:41;2.05;;;1.85;;
56269;SDS011;42176;43.240;27.880;2023-08-07T05:16:42;4.28;;;1.90;;
56269;SDS011;42176;43.240;27.880;2023-08-07T05:18:42;3.22;;;1.58;;
56269;SDS011;42176;43.240;27.880;2023-08-07T05:20:43;1.92;;;1.45;;
56269;SDS011;42176;43.240;27.880;2023-08-07T05:22:43;4.03;;;1.85;;
56269;SDS011;42176;43.240;27.880;2023-08-07T05:24:44;2.03;;;1.85;;
56269;SDS011;42176;43.240;27.880;2023-08-07T05:26:45;1.70;;;1.60;;
56269;SDS011;42176;43.240;27.880;2023-08-07T05:28:46;1.88;;;1.77;;
56269;SDS011;42176;43.240;27.880;2023-08-07T05:30:46;2.40;;;1.70;;
56269;SDS011;42176;43.240;27.880;2023-08-07T05:32:47;1.90;;;1.60;;
56269;SDS011;42176;43.240;27.880;2023-08-07T05:34:47;1.88;;;1.40;;
56269;SDS011;42176;43.240;27.880;2023-08-07T05:36:48;2.85;;;1.60;;
56269;SDS011;42176;43.240;27.880;2023-08-07T05:38:49;1.60;;;1.50;;
56269;SDS011;42176;43.240;27.880;2023-08-07T05:40:49;2.00;;;1.50;;
56269;SDS011;42176;43.240;27.880;2023-08-07T05:42:50;5.72;;;1.70;;
56269;SDS011;42176;43.240;27.880;2023-08-07T05:44:50;2.08;;;1.40;;
56269;SDS011;42176;43.240;27.880;2023-08-07T05:46:51;2.17;;;1.75;;
56269;SDS011;42176;43.240;27.880;2023-08-07T05:48:51;4.90;;;2.50;;
56269;SDS011;42176;43.240;27.880;2023-08-07T05:50:52;3.28;;;1.70;;
56269;SDS011;42176;43.240;27.880;2023-08-07T05:52:53;10.77;;;1.58;;
56269;SDS011;42176;43.240;27.880;2023-08-07T05:54:53;6.45;;;1.10;;
56269;SDS011;42176;43.240;27.880;2023-08-07T05:56:53;0.75;;;0.75;;
56269;SDS011;42176;43.240;27.880;2023-08-07T05:58:54;1.90;;;1.10;;
56269;SDS011;42176;43.240;27.880;2023-08-07T06:00:54;5.65;;;1.27;;
56269;SDS011;42176;43.240;27.880;2023-08-07T06:02:55;0.93;;;0.93;;
56269;SDS011;42176;43.240;27.880;2023-08-07T06:04:55;0.82;;;0.80;;
56269;SDS011;42176;43.240;27.880;2023-08-07T06:06:55;1.88;;;1.20;;
56269;SDS011;42176;43.240;27.880;2023-08-07T06:08:56;2.28;;;1.10;;
56269;SDS011;42176;43.240;27.880;2023-08-07T06:10:56;2.45;;;1.00;;
56269;SDS011;42176;43.240;27.880;2023-08-07T06:12:57;4.20;;;1.25;;
56269;SDS011;42176;43.240;27.880;2023-08-07T06:14:57;2.67;;;1.20;;
56269;SDS011;42176;43.240;27.880;2023-08-07T06:16:58;5.43;;;1.20;;
56269;SDS011;42176;43.240;27.880;2023-08-07T06:19:00;1.55;;;1.10;;
56269;SDS011;42176;43.240;27.880;2023-08-07T06:21:00;1.50;;;1.40;;
56269;SDS011;42176;43.240;27.880;2023-08-07T06:23:01;1.27;;;1.10;;
56269;SDS011;42176;43.240;27.880;2023-08-07T06:25:01;1.90;;;0.90;;
56269;SDS011;42176;43.240;27.880;2023-08-07T06:27:02;1.17;;;1.00;;
56269;SDS011;42176;43.240;27.880;2023-08-07T06:29:03;1.20;;;1.10;;
56269;SDS011;42176;43.240;27.880;2023-08-07T06:31:04;3.88;;;1.17;;
56269;SDS011;42176;43.240;27.880;2023-08-07T06:33:06;3.58;;;1.00;;
56269;SDS011;42176;43.240;27.880;2023-08-07T06:35:07;1.90;;;1.33;;
56269;SDS011;42176;43.240;27.880;2023-08-07T06:37:07;1.15;;;1.02;;
56269;SDS011;42176;43.240;27.880;2023-08-07T06:39:08;1.10;;;1.10;;
56269;SDS011;42176;43.240;27.880;2023-08-07T06:41:08;1.17;;;1.15;;
56269;SDS011;42176;43.240;27.880;2023-08-07T06:43:09;1.38;;;1.23;;
56269;SDS011;42176;43.240;27.880;2023-08-07T06:45:09;7.43;;;1.30;;
56269;SDS011;42176;43.240;27.880;2023-08-07T06:47:10;1.00;;;0.90;;
56269;SDS011;42176;43.240;27.880;2023-08-07T06:49:10;1.42;;;1.10;;
56269;SDS011;42176;43.240;27.880;2023-08-07T06:51:12;2.72;;;1.83;;
56269;SDS011;42176;43.240;27.880;2023-08-07T06:53:12;1.73;;;1.15;;
56269;SDS011;42176;43.240;27.880;2023-08-07T06:55:13;4.03;;;0.98;;
56269;SDS011;42176;43.240;27.880;2023-08-07T06:57:14;1.27;;;0.98;;
56269;SDS011;42176;43.240;27.880;2023-08-07T06:59:14;4.47;;;1.30;;
56269;SDS011;42176;43.240;27.880;2023-08-07T07:01:14;1.58;;;1.25;;
56269;SDS011;42176;43.240;27.880;2023-08-07T07:03:15;3.08;;;1.00;;
56269;SDS011;42176;43.240;27.880;2023-08-07T07:05:15;1.35;;;1.15;;
56269;SDS011;42176;43.240;27.880;2023-08-07T07:07:16;2.70;;;1.05;;
56269;SDS011;42176;43.240;27.880;2023-08-07T07:09:16;1.10;;;0.98;;
56269;SDS011;42176;43.240;27.880;2023-08-07T07:11:17;2.60;;;1.30;;
56269;SDS011;42176;43.240;27.880;2023-08-07T07:13:17;1.60;;;1.10;;
56269;SDS011;42176;43.240;27.880;2023-08-07T07:15:18;3.38;;;1.33;;
56269;SDS011;42176;43.240;27.880;2023-08-07T07:17:18;2.25;;;1.20;;
56269;SDS011;42176;43.240;27.880;2023-08-07T07:19:19;2.95;;;1.02;;
56269;SDS011;42176;43.240;27.880;2023-08-07T07:21:19;1.58;;;1.40;;
56269;SDS011;42176;43.240;27.880;2023-08-07T07:23:20;3.10;;;1.20;;
56269;SDS011;42176;43.240;27.880;2023-08-07T07:25:21;3.13;;;1.10;;
56269;SDS011;42176;43.240;27.880;2023-08-07T07:27:21;3.30;;;1.35;;
56269;SDS011;42176;43.240;27.880;2023-08-07T07:29:22;2.35;;;1.00;;
56269;SDS011;42176;43.240;27.880;2023-08-07T07:31:22;3.40;;;1.00;;
56269;SDS011;42176;43.240;27.880;2023-08-07T07:33:23;3.47;;;1.17;;
56269;SDS011;42176;43.240;27.880;2023-08-07T07:35:23;2.25;;;1.05;;
56269;SDS011;42176;43.240;27.880;2023-08-07T07:37:24;4.30;;;1.27;;
56269;SDS011;42176;43.240;27.880;2023-08-07T07:39:24;1.45;;;1.33;;
56269;SDS011;42176;43.240;27.880;2023-08-07T07:41:25;3.15;;;1.00;;
56269;SDS011;42176;43.240;27.880;2023-08-07T07:43:25;1.05;;;0.95;;
56269;SDS011;42176;43.240;27.880;2023-08-07T07:45:26;1.15;;;1.00;;
56269;SDS011;42176;43.240;27.880;2023-08-07T07:47:26;1.20;;;1.10;;
56269;SDS011;42176;43.240;27.880;2023-08-07T07:49:27;4.68;;;0.90;;
56269;SDS011;42176;43.240;27.880;2023-08-07T07:51:27;3.33;;;1.42;;
56269;SDS011;42176;43.240;27.880;2023-08-07T07:53:29;4.72;;;1.10;;
56269;SDS011;42176;43.240;27.880;2023-08-07T07:55:30;1.00;;;1.00;;
56269;SDS011;42176;43.240;27.880;2023-08-07T07:57:30;1.55;;;1.10;;
56269;SDS011;42176;43.240;27.880;2023-08-07T07:59:31;2.63;;;0.80;;
56269;SDS011;42176;43.240;27.880;2023-08-07T08:01:32;4.68;;;1.27;;
56269;SDS011;42176;43.240;27.880;2023-08-07T08:03:32;2.30;;;1.45;;
56269;SDS011;42176;43.240;27.880;2023-08-07T08:05:33;0.95;;;0.95;;
56269;SDS011;42176;43.240;27.880;2023-08-07T08:07:34;1.10;;;1.00;;
56269;SDS011;42176;43.240;27.880;2023-08-07T08:09:34;1.83;;;0.95;;
56269;SDS011;42176;43.240;27.880;2023-08-07T08:11:35;3.88;;;1.30;;
56269;SDS011;42176;43.240;27.880;2023-08-07T08:13:36;1.40;;;1.30;;
56269;SDS011;42176;43.240;27.880;2023-08-07T08:15:39;1.27;;;1.23;;
56269;SDS011;42176;43.240;27.880;2023-08-07T08:17:42;1.02;;;1.02;;
56269;SDS011;42176;43.240;27.880;2023-08-07T08:19:43;2.20;;;1.08;;
56269;SDS011;42176;43.240;27.880;2023-08-07T08:21:43;2.05;;;1.05;;
56269;SDS011;42176;43.240;27.880;2023-08-07T08:23:44;1.25;;;1.15;;
56269;SDS011;42176;43.240;27.880;2023-08-07T08:25:44;1.58;;;1.33;;
56269;SDS011;42176;43.240;27.880;2023-08-07T08:27:44;3.70;;;1.60;;
56269;SDS011;42176;43.240;27.880;2023-08-07T08:29:45;1.38;;;0.98;;
56269;SDS011;42176;43.240;27.880;2023-08-07T08:31:46;1.65;;;1.52;;
56269;SDS011;42176;43.240;27.880;2023-08-07T08:33:46;5.53;;;1.45;;
56269;SDS011;42176;43.240;27.880;2023-08-07T08:35:47;1.00;;;1.00;;
56269;SDS011;42176;43.240;27.880;2023-08-07T08:37:47;1.48;;;1.38;;
56269;SDS011;42176;43.240;27.880;2023-08-07T08:39:48;2.22;;;1.20;;
56269;SDS011;42176;43.240;27.880;2023-08-07T08:41:49;2.40;;;1.08;;
56269;SDS011;42176;43.240;27.880;2023-08-07T08:43:51;1.20;;;1.20;;
56269;SDS011;42176;43.240;27.880;2023-08-07T08:45:55;1.35;;;1.35;;
56269;SDS011;42176;43.240;27.880;2023-08-07T08:47:58;1.65;;;1.23;;
56269;SDS011;42176;43.240;27.880;2023-08-07T08:50:03;3.92;;;1.45;;
56269;SDS011;42176;43.240;27.880;2023-08-07T08:52:08;3.53;;;1.10;;
56269;SDS011;42176;43.240;27.880;2023-08-07T08:54:09;1.10;;;1.10;;
56269;SDS011;42176;43.240;27.880;2023-08-07T08:56:10;1.98;;;1.48;;
56269;SDS011;42176;43.240;27.880;2023-08-07T08:58:12;1.08;;;1.08;;
56269;SDS011;42176;43.240;27.880;2023-08-07T09:00:15;1.00;;;1.00;;
56269;SDS011;42176;43.240;27.880;2023-08-07T09:02:20;2.88;;;1.20;;
56269;SDS011;42176;43.240;27.880;2023-08-07T09:04:21;1.00;;;1.00;;
56269;SDS011;42176;43.240;27.880;2023-08-07T09:06:21;2.13;;;1.30;;
56269;SDS011;42176;43.240;27.880;2023-08-07T09:08:22;1.92;;;1.50;;
56269;SDS011;42176;43.240;27.880;2023-08-07T09:10:26;1.90;;;1.80;;
56269;SDS011;42176;43.240;27.880;2023-08-07T09:12:29;2.35;;;1.10;;
56269;SDS011;42176;43.240;27.880;2023-08-07T09:14:32;2.63;;;1.20;;
56269;SDS011;42176;43.240;27.880;2023-08-07T09:16:37;1.10;;;1.10;;
56269;SDS011;42176;43.240;27.880;2023-08-07T09:18:38;7.05;;;1.20;;
56269;SDS011;42176;43.240;27.880;2023-08-07T09:20:39;1.35;;;1.05;;
56269;SDS011;42176;43.240;27.880;2023-08-07T09:22:40;1.00;;;1.00;;
56269;SDS011;42176;43.240;27.880;2023-08-07T09:24:42;1.17;;;1.00;;
56269;SDS011;42176;43.240;27.880;2023-08-07T09:26:42;1.80;;;1.05;;
56269;SDS011;42176;43.240;27.880;2023-08-07T09:28:43;1.15;;;0.93;;
56269;SDS011;42176;43.240;27.880;2023-08-07T09:30:44;1.85;;;1.10;;
56269;SDS011;42176;43.240;27.880;2023-08-07T09:32:47;1.02;;;1.02;;
56269;SDS011;42176;43.240;27.880;2023-08-07T09:34:48;2.40;;;0.80;;
56269;SDS011;42176;43.240;27.880;2023-08-07T09:36:49;4.60;;;1.10;;
56269;SDS011;42176;43.240;27.880;2023-08-07T09:38:49;1.50;;;1.02;;
56269;SDS011;42176;43.240;27.880;2023-08-07T09:40:50;0.77;;;0.73;;
56269;SDS011;42176;43.240;27.880;2023-08-07T09:42:51;2.97;;;0.90;;
56269;SDS011;42176;43.240;27.880;2023-08-07T09:44:53;1.98;;;1.88;;
56269;SDS011;42176;43.240;27.880;2023-08-07T09:46:53;2.38;;;1.20;;
56269;SDS011;42176;43.240;27.880;2023-08-07T09:48:57;1.50;;;1.05;;
56269;SDS011;42176;43.240;27.880;2023-08-07T09:51:01;1.45;;;1.00;;
56269;SDS011;42176;43.240;27.880;2023-08-07T09:53:04;1.20;;;1.00;;
56269;SDS011;42176;43.240;27.880;2023-08-07T09:55:05;3.90;;;1.00;;
56269;SDS011;42176;43.240;27.880;2023-08-07T09:57:06;1.50;;;1.02;;
56269;SDS011;42176;43.240;27.880;2023-08-07T09:59:07;0.82;;;0.80;;
56269;SDS011;42176;43.240;27.880;2023-08-07T10:01:08;1.20;;;1.10;;
56269;SDS011;42176;43.240;27.880;2023-08-07T10:03:09;1.17;;;0.90;;
56269;SDS011;42176;43.240;27.880;2023-08-07T10:05:10;1.40;;;1.17;;
56269;SDS011;42176;43.240;27.880;2023-08-07T10:07:11;0.80;;;0.80;;
56269;SDS011;42176;43.240;27.880;2023-08-07T10:09:15;0.80;;;0.80;;
56269;SDS011;42176;43.240;27.880;2023-08-07T10:11:16;0.68;;;0.65;;
56269;SDS011;42176;43.240;27.880;2023-08-07T10:13:17;4.40;;;1.17;;
56269;SDS011;42176;43.240;27.880;2023-08-07T10:15:18;1.48;;;1.02;;
56269;SDS011;42176;43.240;27.880;2023-08-07T10:17:21;0.90;;;0.90;;
56269;SDS011;42176;43.240;27.880;2023-08-07T10:19:22;2.80;;;0.77;;
56269;SDS011;42176;43.240;27.880;2023-08-07T10:21:24;4.53;;;1.10;;
56269;SDS011;42176;43.240;27.880;2023-08-07T10:23:24;2.63;;;0.90;;
56269;SDS011;42176;43.240;27.880;2023-08-07T10:25:25;1.65;;;0.80;;
56269;SDS011;42176;43.240;27.880;2023-08-07T10:27:33;1.23;;;0.75;;
56269;SDS011;42176;43.240;27.880;2023-08-07T10:29:37;1.77;;;1.02;;
56269;SDS011;42176;43.240;27.880;2023-08-07T10:31:38;0.95;;;0.95;;
56269;SDS011;42176;43.240;27.880;2023-08-07T10:33:42;0.80;;;0.80;;
56269;SDS011;42176;43.240;27.880;2023-08-07T10:35:44;0.80;;;0.80;;
56269;SDS011;42176;43.240;27.880;2023-08-07T10:37:47;1.15;;;1.10;;
56269;SDS011;42176;43.240;27.880;2023-08-07T10:40:03;6.32;;;1.30;;
56269;SDS011;42176;43.240;27.880;2023-08-07T10:42:05;0.50;;;0.50;;
56269;SDS011;42176;43.240;27.880;2023-08-07T10:44:09;2.25;;;1.00;;
56269;SDS011;42176;43.240;27.880;2023-08-07T10:46:20;8.50;;;1.00;;
56269;SDS011;42176;43.240;27.880;2023-08-07T10:48:22;1.40;;;1.00;;
56269;SDS011;42176;43.240;27.880;2023-08-07T10:50:32;3.70;;;0.95;;
56269;SDS011;42176;43.240;27.880;2023-08-07T10:52:33;1.08;;;0.98;;
56269;SDS011;42176;43.240;27.880;2023-08-07T10:54:45;1.10;;;1.00;;
56269;SDS011;42176;43.240;27.880;2023-08-07T10:56:51;1.20;;;0.90;;
56269;SDS011;42176;43.240;27.880;2023-08-07T10:58:53;0.93;;;0.80;;
56269;SDS011;42176;43.240;27.880;2023-08-07T11:03:20;0.77;;;0.77;;
56269;SDS011;42176;43.240;27.880;2023-08-07T11:05:26;2.38;;;1.00;;
56269;SDS011;42176;43.240;27.880;2023-08-07T11:07:27;1.20;;;1.10;;
56269;SDS011;42176;43.240;27.880;2023-08-07T11:09:28;1.02;;;0.90;;
56269;SDS011;42176;43.240;27.880;2023-08-07T11:11:29;1.65;;;0.90;;
56269;SDS011;42176;43.240;27.880;2023-08-07T11:13:39;1.55;;;1.00;;
56269;SDS011;42176;43.240;27.880;2023-08-07T11:15:40;2.90;;;1.00;;
56269;SDS011;42176;43.240;27.880;2023-08-07T11:17:40;1.23;;;1.10;;
56269;SDS011;42176;43.240;27.880;2023-08-07T11:19:41;4.03;;;1.38;;
56269;SDS011;42176;43.240;27.880;2023-08-07T11:21:42;0.75;;;0.75;;
56269;SDS011;42176;43.240;27.880;2023-08-07T11:23:43;2.72;;;1.00;;
56269;SDS011;42176;43.240;27.880;2023-08-07T11:25:44;0.88;;;0.88;;
56269;SDS011;42176;43.240;27.880;2023-08-07T11:27:44;2.88;;;1.33;;
56269;SDS011;42176;43.240;27.880;2023-08-07T11:29:47;1.15;;;1.08;;
56269;SDS011;42176;43.240;27.880;2023-08-07T11:31:48;1.98;;;1.10;;
56269;SDS011;42176;43.240;27.880;2023-08-07T11:33:59;1.17;;;1.00;;
56269;SDS011;42176;43.240;27.880;2023-08-07T11:36:02;0.90;;;0.90;;
56269;SDS011;42176;43.240;27.880;2023-08-07T11:38:03;0.70;;;0.70;;
56269;SDS011;42176;43.240;27.880;2023-08-07T11:40:03;3.35;;;1.00;;
56269;SDS011;42176;43.240;27.880;2023-08-07T11:42:05;2.55;;;0.90;;
56269;SDS011;42176;43.240;27.880;2023-08-07T11:44:09;4.78;;;2.15;;
56269;SDS011;42176;43.240;27.880;2023-08-07T11:46:11;2.70;;;1.67;;
56269;SDS011;42176;43.240;27.880;2023-08-07T11:48:13;1.60;;;1.00;;
56269;SDS011;42176;43.240;27.880;2023-08-07T11:50:13;6.40;;;4.68;;
56269;SDS011;42176;43.240;27.880;2023-08-07T11:52:14;1.45;;;0.95;;
56269;SDS011;42176;43.240;27.880;2023-08-07T11:54:14;5.45;;;2.88;;
56269;SDS011;42176;43.240;27.880;2023-08-07T11:56:16;2.83;;;1.85;;
56269;SDS011;42176;43.240;27.880;2023-08-07T11:58:17;1.20;;;1.02;;
56269;SDS011;42176;43.240;27.880;2023-08-07T12:00:18;2.25;;;0.95;;
56269;SDS011;42176;43.240;27.880;2023-08-07T12:02:29;1.17;;;1.08;;
56269;SDS011;42176;43.240;27.880;2023-08-07T12:04:30;1.15;;;0.80;;
56269;SDS011;42176;43.240;27.880;2023-08-07T12:06:35;0.60;;;0.60;;
56269;SDS011;42176;43.240;27.880;2023-08-07T12:08:39;0.68;;;0.68;;
56269;SDS011;42176;43.240;27.880;2023-08-07T12:10:41;2.10;;;1.55;;
56269;SDS011;42176;43.240;27.880;2023-08-07T12:12:42;7.13;;;0.90;;
56269;SDS011;42176;43.240;27.880;2023-08-07T12:14:43;0.85;;;0.85;;
56269;SDS011;42176;43.240;27.880;2023-08-07T12:16:44;3.03;;;2.33;;
56269;SDS011;42176;43.240;27.880;2023-08-07T12:18:48;2.42;;;2.08;;
56269;SDS011;42176;43.240;27.880;2023-08-07T12:20:50;6.63;;;3.63;;